sensor_id;sensor_type;location;lat;lon;timestamp;noise_LAeq;noise_LA_min;noise_LA_max;noise_LA01;noise_LA95
37163;Laerm;23057;48.554;14.454;2023-04-01T00:01:46;49.86;48.90;51.08;;
37163;Laerm;23057;48.554;14.454;2023-04-01T00:04:16;49.86;48.73;51.44;;
37163;Laerm;23057;48.554;14.454;2023-04-01T00:06:47;49.86;48.80;51.37;;
37163;Laerm;23057;48.554;14.454;2023-04-01T00:09:18;49.86;48.71;51.09;;
37163;Laerm;23057;48.554;14.454;2023-04-01T00:11:49;49.87;48.78;51.67;;
37163;Laerm;23057;48.554;14.454;2023-04-01T00:14:20;49.86;48.74;51.29;;
37163;Laerm;23057;48.554;14.454;2023-04-01T00:16:51;49.86;48.85;51.11;;
37163;Laerm;23057;48.554;14.454;2023-04-01T00:19:22;49.86;48.87;51.08;;
37163;Laerm;23057;48.554;14.454;2023-04-01T00:21:53;49.86;48.91;51.00;;
37163;Laerm;23057;48.554;14.454;2023-04-01T00:24:24;49.86;48.85;50.84;;
37163;Laerm;23057;48.554;14.454;2023-04-01T00:26:55;49.86;48.78;51.70;;
37163;Laerm;23057;48.554;14.454;2023-04-01T00:29:26;49.85;48.81;51.06;;
37163;Laerm;23057;48.554;14.454;2023-04-01T00:32:00;49.86;48.63;51.93;;
37163;Laerm;23057;48.554;14.454;2023-04-01T00:34:30;49.86;48.87;51.33;;
37163;Laerm;23057;48.554;14.454;2023-04-01T00:37:01;49.86;48.64;52.19;;
37163;Laerm;23057;48.554;14.454;2023-04-01T00:39:33;49.87;48.90;50.96;;
37163;Laerm;23057;48.554;14.454;2023-04-01T00:42:04;49.86;48.84;51.24;;
37163;Laerm;23057;48.554;14.454;2023-04-01T00:44:38;49.87;48.77;51.17;;
37163;Laerm;23057;48.554;14.454;2023-04-01T00:47:09;49.86;48.78;51.70;;
37163;Laerm;23057;48.554;14.454;2023-04-01T00:49:44;49.86;48.83;51.13;;
37163;Laerm;23057;48.554;14.454;2023-04-01T00:52:21;49.86;48.81;50.98;;
37163;Laerm;23057;48.554;14.454;2023-04-01T00:54:59;49.86;48.80;51.06;;
37163;Laerm;23057;48.554;14.454;2023-04-01T00:57:36;49.86;48.76;51.08;;
37163;Laerm;23057;48.554;14.454;2023-04-01T01:00:12;49.86;48.84;51.05;;
37163;Laerm;23057;48.554;14.454;2023-04-01T01:02:45;49.86;48.63;51.81;;
37163;Laerm;23057;48.554;14.454;2023-04-01T01:05:23;49.88;48.63;51.68;;
37163;Laerm;23057;48.554;14.454;2023-04-01T01:08:20;49.86;48.69;52.56;;
37163;Laerm;23057;48.554;14.454;2023-04-01T01:10:53;49.86;48.78;51.70;;
37163;Laerm;23057;48.554;14.454;2023-04-01T01:13:36;49.86;48.57;51.00;;
37163;Laerm;23057;48.554;14.454;2023-04-01T01:16:27;49.86;48.87;50.99;;
37163;Laerm;23057;48.554;14.454;2023-04-01T01:20:08;49.86;48.81;51.57;;
37163;Laerm;23057;48.554;14.454;2023-04-01T01:22:52;49.86;48.66;51.17;;
37163;Laerm;23057;48.554;14.454;2023-04-01T01:29:34;49.85;48.80;51.71;;
37163;Laerm;23057;48.554;14.454;2023-04-01T01:38:03;49.86;48.63;51.52;;
37163;Laerm;23057;48.554;14.454;2023-04-01T01:40:36;49.86;48.57;51.30;;
37163;Laerm;23057;48.554;14.454;2023-04-01T01:43:14;49.86;48.87;50.86;;
37163;Laerm;23057;48.554;14.454;2023-04-01T01:45:53;49.86;48.74;50.92;;
37163;Laerm;23057;48.554;14.454;2023-04-01T01:48:28;49.88;48.77;51.48;;
37163;Laerm;23057;48.554;14.454;2023-04-01T01:51:00;49.87;48.78;51.17;;
37163;Laerm;23057;48.554;14.454;2023-04-01T01:53:31;49.87;48.70;51.04;;
37163;Laerm;23057;48.554;14.454;2023-04-01T01:56:02;49.87;48.85;51.26;;
37163;Laerm;23057;48.554;14.454;2023-04-01T01:58:44;49.87;48.40;51.52;;
37163;Laerm;23057;48.554;14.454;2023-04-01T02:01:29;49.86;48.66;51.33;;
37163;Laerm;23057;48.554;14.454;2023-04-01T02:04:02;49.86;48.81;50.92;;
37163;Laerm;23057;48.554;14.454;2023-04-01T02:06:39;49.88;48.71;51.22;;
37163;Laerm;23057;48.554;14.454;2023-04-01T02:09:13;49.87;48.73;51.46;;
37163;Laerm;23057;48.554;14.454;2023-04-01T02:11:59;49.87;48.90;51.28;;
37163;Laerm;23057;48.554;14.454;2023-04-01T02:17:19;49.86;48.70;51.76;;
37163;Laerm;23057;48.554;14.454;2023-04-01T02:19:57;49.86;48.80;50.85;;
37163;Laerm;23057;48.554;14.454;2023-04-01T02:22:34;49.87;48.80;51.42;;
37163;Laerm;23057;48.554;14.454;2023-04-01T02:25:14;49.87;48.88;51.03;;
37163;Laerm;23057;48.554;14.454;2023-04-01T02:27:46;49.86;48.78;51.86;;
37163;Laerm;23057;48.554;14.454;2023-04-01T02:30:18;49.87;48.92;50.80;;
37163;Laerm;23057;48.554;14.454;2023-04-01T02:32:49;49.86;48.83;51.22;;
37163;Laerm;23057;48.554;14.454;2023-04-01T02:35:20;49.87;48.73;52.50;;
37163;Laerm;23057;48.554;14.454;2023-04-01T02:37:54;49.87;48.78;51.02;;
37163;Laerm;23057;48.554;14.454;2023-04-01T02:40:25;49.87;48.84;51.04;;
37163;Laerm;23057;48.554;14.454;2023-04-01T02:42:56;49.87;48.76;51.10;;
37163;Laerm;23057;48.554;14.454;2023-04-01T02:45:27;49.86;48.61;51.75;;
37163;Laerm;23057;48.554;14.454;2023-04-01T02:47:57;49.87;48.85;53.64;;
37163;Laerm;23057;48.554;14.454;2023-04-01T02:50:28;49.86;48.66;51.57;;
37163;Laerm;23057;48.554;14.454;2023-04-01T02:52:59;49.86;48.87;51.06;;
37163;Laerm;23057;48.554;14.454;2023-04-01T02:55:29;49.86;48.77;51.17;;
37163;Laerm;23057;48.554;14.454;2023-04-01T02:58:01;49.88;48.87;51.41;;
37163;Laerm;23057;48.554;14.454;2023-04-01T03:00:32;49.88;48.69;50.92;;
37163;Laerm;23057;48.554;14.454;2023-04-01T03:03:03;49.87;48.69;50.92;;
37163;Laerm;23057;48.554;14.454;2023-04-01T03:05:34;49.87;48.84;51.26;;
37163;Laerm;23057;48.554;14.454;2023-04-01T03:08:05;49.86;48.81;52.00;;
37163;Laerm;23057;48.554;14.454;2023-04-01T03:10:36;49.87;48.63;51.03;;
37163;Laerm;23057;48.554;14.454;2023-04-01T03:13:07;49.87;48.83;51.06;;
37163;Laerm;23057;48.554;14.454;2023-04-01T03:15:38;49.87;48.55;51.07;;
37163;Laerm;23057;48.554;14.454;2023-04-01T03:18:09;49.87;48.89;51.95;;
37163;Laerm;23057;48.554;14.454;2023-04-01T03:20:40;49.88;48.87;51.66;;
37163;Laerm;23057;48.554;14.454;2023-04-01T03:23:11;49.88;48.73;51.13;;
37163;Laerm;23057;48.554;14.454;2023-04-01T03:25:42;49.87;48.83;51.33;;
37163;Laerm;23057;48.554;14.454;2023-04-01T03:28:12;49.87;48.87;51.51;;
37163;Laerm;23057;48.554;14.454;2023-04-01T03:30:43;49.87;48.78;51.23;;
37163;Laerm;23057;48.554;14.454;2023-04-01T03:33:14;49.88;48.70;51.31;;
37163;Laerm;23057;48.554;14.454;2023-04-01T03:35:45;49.87;48.84;51.13;;
37163;Laerm;23057;48.554;14.454;2023-04-01T03:38:16;49.87;48.91;51.71;;
37163;Laerm;23057;48.554;14.454;2023-04-01T03:40:46;49.88;48.78;51.17;;
37163;Laerm;23057;48.554;14.454;2023-04-01T03:43:17;49.88;48.55;51.17;;
37163;Laerm;23057;48.554;14.454;2023-04-01T03:45:50;49.87;48.85;50.94;;
37163;Laerm;23057;48.554;14.454;2023-04-01T03:48:21;49.87;48.84;52.16;;
37163;Laerm;23057;48.554;14.454;2023-04-01T03:50:52;49.87;48.74;51.21;;
37163;Laerm;23057;48.554;14.454;2023-04-01T03:53:23;49.87;48.79;51.47;;
37163;Laerm;23057;48.554;14.454;2023-04-01T03:55:54;49.88;48.76;51.60;;
37163;Laerm;23057;48.554;14.454;2023-04-01T03:58:25;49.87;48.77;51.79;;
37163;Laerm;23057;48.554;14.454;2023-04-01T04:00:55;49.87;48.61;51.33;;
37163;Laerm;23057;48.554;14.454;2023-04-01T04:03:26;49.86;48.85;51.06;;
37163;Laerm;23057;48.554;14.454;2023-04-01T04:05:57;49.87;48.82;51.09;;
37163;Laerm;23057;48.554;14.454;2023-04-01T04:08:28;49.88;48.83;51.86;;
37163;Laerm;23057;48.554;14.454;2023-04-01T04:10:59;49.88;48.83;51.09;;
37163;Laerm;23057;48.554;14.454;2023-04-01T04:13:29;49.88;48.60;51.13;;
37163;Laerm;23057;48.554;14.454;2023-04-01T04:16:00;49.88;48.85;51.13;;
37163;Laerm;23057;48.554;14.454;2023-04-01T04:18:31;49.88;48.81;51.76;;
37163;Laerm;23057;48.554;14.454;2023-04-01T04:21:02;49.88;48.84;51.12;;
37163;Laerm;23057;48.554;14.454;2023-04-01T04:23:33;49.87;48.78;51.82;;
37163;Laerm;23057;48.554;14.454;2023-04-01T04:26:07;49.87;48.61;51.64;;
37163;Laerm;23057;48.554;14.454;2023-04-01T04:28:39;49.87;48.71;51.78;;
37163;Laerm;23057;48.554;14.454;2023-04-01T04:31:10;49.87;48.94;50.92;;
37163;Laerm;23057;48.554;14.454;2023-04-01T04:33:41;49.88;48.73;51.18;;
37163;Laerm;23057;48.554;14.454;2023-04-01T04:36:11;49.87;48.78;51.37;;
37163;Laerm;23057;48.554;14.454;2023-04-01T04:38:42;49.87;48.63;52.02;;
37163;Laerm;23057;48.554;14.454;2023-04-01T04:41:17;49.87;48.78;51.44;;
37163;Laerm;23057;48.554;14.454;2023-04-01T04:43:52;49.88;48.76;51.31;;
37163;Laerm;23057;48.554;14.454;2023-04-01T04:46:23;49.88;48.91;51.12;;
37163;Laerm;23057;48.554;14.454;2023-04-01T04:48:54;49.88;48.57;51.69;;
37163;Laerm;23057;48.554;14.454;2023-04-01T04:51:25;49.87;48.94;50.92;;
37163;Laerm;23057;48.554;14.454;2023-04-01T04:53:56;49.87;48.76;50.98;;
37163;Laerm;23057;48.554;14.454;2023-04-01T04:56:27;49.86;48.83;51.10;;
37163;Laerm;23057;48.554;14.454;2023-04-01T04:58:58;49.88;48.74;51.51;;
37163;Laerm;23057;48.554;14.454;2023-04-01T05:01:28;49.86;48.85;50.91;;
37163;Laerm;23057;48.554;14.454;2023-04-01T05:03:59;49.86;48.76;50.90;;
37163;Laerm;23057;48.554;14.454;2023-04-01T05:06:30;49.87;48.71;50.91;;
37163;Laerm;23057;48.554;14.454;2023-04-01T05:09:01;49.87;48.90;51.57;;
37163;Laerm;23057;48.554;14.454;2023-04-01T05:11:32;49.86;48.84;51.50;;
37163;Laerm;23057;48.554;14.454;2023-04-01T05:14:03;49.87;48.80;51.69;;
37163;Laerm;23057;48.554;14.454;2023-04-01T05:16:34;49.87;48.79;51.40;;
37163;Laerm;23057;48.554;14.454;2023-04-01T05:19:04;49.88;48.91;51.59;;
37163;Laerm;23057;48.554;14.454;2023-04-01T05:21:35;49.88;48.88;51.13;;
37163;Laerm;23057;48.554;14.454;2023-04-01T05:24:09;49.88;48.77;51.20;;
37163;Laerm;23057;48.554;14.454;2023-04-01T05:26:40;49.88;48.90;52.06;;
37163;Laerm;23057;48.554;14.454;2023-04-01T05:29:11;49.86;48.71;51.37;;
37163;Laerm;23057;48.554;14.454;2023-04-01T05:31:42;49.87;48.81;51.27;;
37163;Laerm;23057;48.554;14.454;2023-04-01T05:34:13;49.87;48.85;51.22;;
37163;Laerm;23057;48.554;14.454;2023-04-01T05:36:44;49.87;48.69;51.17;;
37163;Laerm;23057;48.554;14.454;2023-04-01T05:39:15;49.86;48.84;51.56;;
37163;Laerm;23057;48.554;14.454;2023-04-01T05:41:46;49.86;48.88;51.33;;
37163;Laerm;23057;48.554;14.454;2023-04-01T05:44:17;49.86;48.94;51.62;;
37163;Laerm;23057;48.554;14.454;2023-04-01T05:46:48;49.86;48.74;51.70;;
37163;Laerm;23057;48.554;14.454;2023-04-01T05:49:18;49.86;48.76;50.93;;
37163;Laerm;23057;48.554;14.454;2023-04-01T05:51:49;49.85;48.87;51.56;;
37163;Laerm;23057;48.554;14.454;2023-04-01T05:54:22;49.86;48.81;51.78;;
37163;Laerm;23057;48.554;14.454;2023-04-01T05:56:53;49.86;48.81;51.52;;
37163;Laerm;23057;48.554;14.454;2023-04-01T05:59:24;49.86;48.58;51.17;;
37163;Laerm;23057;48.554;14.454;2023-04-01T06:01:54;49.86;48.69;51.62;;
37163;Laerm;23057;48.554;14.454;2023-04-01T06:04:32;49.85;48.76;51.19;;
37163;Laerm;23057;48.554;14.454;2023-04-01T06:07:14;49.85;48.67;51.37;;
37163;Laerm;23057;48.554;14.454;2023-04-01T06:09:45;49.85;48.78;51.60;;
37163;Laerm;23057;48.554;14.454;2023-04-01T06:12:48;49.85;48.78;51.61;;
37163;Laerm;23057;48.554;14.454;2023-04-01T06:15:27;49.86;48.79;51.40;;
37163;Laerm;23057;48.554;14.454;2023-04-01T06:18:41;49.84;48.51;51.72;;
37163;Laerm;23057;48.554;14.454;2023-04-01T06:24:59;49.85;48.73;51.93;;
37163;Laerm;23057;48.554;14.454;2023-04-01T06:27:59;49.84;48.71;51.95;;
37163;Laerm;23057;48.554;14.454;2023-04-01T06:31:01;49.84;48.80;51.13;;
37163;Laerm;23057;48.554;14.454;2023-04-01T06:39:46;49.84;48.83;51.30;;
37163;Laerm;23057;48.554;14.454;2023-04-01T06:46:02;49.82;48.70;50.99;;
37163;Laerm;23057;48.554;14.454;2023-04-01T06:49:03;49.83;48.73;51.95;;
37163;Laerm;23057;48.554;14.454;2023-04-01T06:51:56;49.84;48.74;51.23;;
37163;Laerm;23057;48.554;14.454;2023-04-01T06:54:37;49.84;48.77;51.37;;
37163;Laerm;23057;48.554;14.454;2023-04-01T06:57:44;49.81;48.77;51.35;;
37163;Laerm;23057;48.554;14.454;2023-04-01T07:00:31;49.80;48.80;51.85;;
37163;Laerm;23057;48.554;14.454;2023-04-01T07:03:23;49.83;48.77;50.91;;
37163;Laerm;23057;48.554;14.454;2023-04-01T07:06:15;49.83;48.76;51.66;;
37163;Laerm;23057;48.554;14.454;2023-04-01T07:08:48;49.84;48.69;51.76;;
37163;Laerm;23057;48.554;14.454;2023-04-01T07:11:40;49.83;48.58;50.98;;
37163;Laerm;23057;48.554;14.454;2023-04-01T07:14:23;49.84;48.85;51.31;;
37163;Laerm;23057;48.554;14.454;2023-04-01T07:17:05;49.83;48.85;52.00;;
37163;Laerm;23057;48.554;14.454;2023-04-01T07:19:51;49.85;48.77;51.12;;
37163;Laerm;23057;48.554;14.454;2023-04-01T07:22:32;49.83;48.87;52.04;;
37163;Laerm;23057;48.554;14.454;2023-04-01T07:25:21;49.82;48.51;51.32;;
37163;Laerm;23057;48.554;14.454;2023-04-01T07:28:01;49.83;48.74;52.08;;
37163;Laerm;23057;48.554;14.454;2023-04-01T07:30:48;49.84;48.77;52.06;;
37163;Laerm;23057;48.554;14.454;2023-04-01T07:37:10;49.84;48.71;51.09;;
37163;Laerm;23057;48.554;14.454;2023-04-01T07:39:53;49.84;48.72;51.75;;
37163;Laerm;23057;48.554;14.454;2023-04-01T07:48:47;49.84;48.73;51.36;;
37163;Laerm;23057;48.554;14.454;2023-04-01T07:51:41;49.83;48.80;50.88;;
37163;Laerm;23057;48.554;14.454;2023-04-01T07:57:21;49.83;48.83;52.05;;
37163;Laerm;23057;48.554;14.454;2023-04-01T08:03:33;49.82;48.61;51.48;;
37163;Laerm;23057;48.554;14.454;2023-04-01T08:06:25;49.82;48.69;51.03;;
37163;Laerm;23057;48.554;14.454;2023-04-01T08:09:10;49.82;48.83;51.47;;
37163;Laerm;23057;48.554;14.454;2023-04-01T08:15:21;49.81;48.71;51.63;;
37163;Laerm;23057;48.554;14.454;2023-04-01T08:18:09;49.81;48.83;51.45;;
37163;Laerm;23057;48.554;14.454;2023-04-01T08:20:58;49.82;48.66;51.48;;
37163;Laerm;23057;48.554;14.454;2023-04-01T08:23:43;49.82;48.55;51.18;;
37163;Laerm;23057;48.554;14.454;2023-04-01T08:32:25;49.82;48.76;50.89;;
37163;Laerm;23057;48.554;14.454;2023-04-01T08:35:34;49.81;48.64;51.21;;
37163;Laerm;23057;48.554;14.454;2023-04-01T08:38:19;49.80;48.73;51.13;;
37163;Laerm;23057;48.554;14.454;2023-04-01T08:50:01;49.84;48.85;53.94;;
37163;Laerm;23057;48.554;14.454;2023-04-01T09:08:28;49.75;48.55;51.40;;
37163;Laerm;23057;48.554;14.454;2023-04-01T09:21:14;49.75;48.46;51.03;;
37163;Laerm;23057;48.554;14.454;2023-04-01T09:36:03;49.73;48.60;51.14;;
37163;Laerm;23057;48.554;14.454;2023-04-01T09:39:29;49.75;48.66;51.18;;
37163;Laerm;23057;48.554;14.454;2023-04-01T09:44:57;49.76;48.67;50.93;;
37163;Laerm;23057;48.554;14.454;2023-04-01T09:48:02;49.74;48.55;51.67;;
37163;Laerm;23057;48.554;14.454;2023-04-01T09:57:03;49.73;48.70;51.75;;
37163;Laerm;23057;48.554;14.454;2023-04-01T10:03:32;49.76;48.67;51.48;;
37163;Laerm;23057;48.554;14.454;2023-04-01T10:36:52;49.73;48.61;50.98;;
37163;Laerm;23057;48.554;14.454;2023-04-01T11:29:24;49.73;48.54;51.64;;
37163;Laerm;23057;48.554;14.454;2023-04-01T11:32:39;49.73;48.67;51.21;;
37163;Laerm;23057;48.554;14.454;2023-04-01T11:44:20;49.70;48.61;51.61;;
37163;Laerm;23057;48.554;14.454;2023-04-01T12:14:21;49.67;48.57;50.80;;
37163;Laerm;23057;48.554;14.454;2023-04-01T12:23:46;49.70;48.61;50.73;;
37163;Laerm;23057;48.554;14.454;2023-04-01T12:27:20;49.70;48.45;50.77;;
37163;Laerm;23057;48.554;14.454;2023-04-01T12:30:32;49.71;48.60;51.59;;
37163;Laerm;23057;48.554;14.454;2023-04-01T12:34:13;49.70;48.58;51.17;;
37163;Laerm;23057;48.554;14.454;2023-04-01T12:37:29;49.69;48.60;51.03;;
37163;Laerm;23057;48.554;14.454;2023-04-01T12:43:54;49.70;48.58;50.79;;
37163;Laerm;23057;48.554;14.454;2023-04-01T12:55:45;49.71;48.45;51.08;;
37163;Laerm;23057;48.554;14.454;2023-04-01T13:07:14;49.75;48.69;51.42;;
37163;Laerm;23057;48.554;14.454;2023-04-01T13:16:07;49.77;48.70;52.04;;
37163;Laerm;23057;48.554;14.454;2023-04-01T13:19:28;49.77;48.60;51.48;;
37163;Laerm;23057;48.554;14.454;2023-04-01T13:25:37;49.78;48.66;51.49;;
37163;Laerm;23057;48.554;14.454;2023-04-01T13:28:20;49.78;48.67;51.46;;
37163;Laerm;23057;48.554;14.454;2023-04-01T13:31:21;49.78;48.64;50.80;;
37163;Laerm;23057;48.554;14.454;2023-04-01T13:46:08;49.75;48.67;51.38;;
37163;Laerm;23057;48.554;14.454;2023-04-01T13:54:55;49.74;48.69;50.97;;
37163;Laerm;23057;48.554;14.454;2023-04-01T14:01:21;49.74;48.58;51.34;;
37163;Laerm;23057;48.554;14.454;2023-04-01T14:07:40;49.75;48.54;51.03;;
37163;Laerm;23057;48.554;14.454;2023-04-01T14:10:37;49.76;48.67;50.92;;
37163;Laerm;23057;48.554;14.454;2023-04-01T14:13:41;49.75;48.52;51.08;;
37163;Laerm;23057;48.554;14.454;2023-04-01T14:17:14;49.76;48.70;51.44;;
37163;Laerm;23057;48.554;14.454;2023-04-01T14:49:42;49.81;48.72;54.35;;
37163;Laerm;23057;48.554;14.454;2023-04-01T14:52:24;49.80;48.77;51.33;;
37163;Laerm;23057;48.554;14.454;2023-04-01T14:54:58;49.80;48.71;52.17;;
37163;Laerm;23057;48.554;14.454;2023-04-01T14:57:31;49.80;48.76;51.33;;
37163;Laerm;23057;48.554;14.454;2023-04-01T15:03:01;49.82;48.66;51.40;;
37163;Laerm;23057;48.554;14.454;2023-04-01T15:05:52;49.81;48.71;51.45;;
37163;Laerm;23057;48.554;14.454;2023-04-01T15:12:07;49.81;48.49;51.45;;
37163;Laerm;23057;48.554;14.454;2023-04-01T15:18:08;49.81;48.77;51.52;;
37163;Laerm;23057;48.554;14.454;2023-04-01T15:23:57;49.80;48.76;50.93;;
37163;Laerm;23057;48.554;14.454;2023-04-01T15:27:15;49.81;48.69;50.99;;
37163;Laerm;23057;48.554;14.454;2023-04-01T15:30:06;49.81;48.74;51.56;;
37163;Laerm;23057;48.554;14.454;2023-04-01T15:35:52;49.81;48.76;51.07;;
37163;Laerm;23057;48.554;14.454;2023-04-01T15:38:39;49.82;48.88;52.10;;
37163;Laerm;23057;48.554;14.454;2023-04-01T15:41:33;49.81;48.66;51.41;;
37163;Laerm;23057;48.554;14.454;2023-04-01T16:01:38;49.82;48.77;51.17;;
37163;Laerm;23057;48.554;14.454;2023-04-01T16:04:50;49.82;48.83;51.21;;
37163;Laerm;23057;48.554;14.454;2023-04-01T16:17:07;49.81;48.76;51.27;;
37163;Laerm;23057;48.554;14.454;2023-04-01T16:20:14;49.82;48.67;52.04;;
37163;Laerm;23057;48.554;14.454;2023-04-01T16:23:02;49.84;48.69;51.22;;
37163;Laerm;23057;48.554;14.454;2023-04-01T16:25:46;49.84;48.76;51.23;;
37163;Laerm;23057;48.554;14.454;2023-04-01T16:28:31;49.84;48.74;51.95;;
37163;Laerm;23057;48.554;14.454;2023-04-01T16:37:12;49.82;48.78;51.33;;
37163;Laerm;23057;48.554;14.454;2023-04-01T16:40:25;49.83;48.70;51.37;;
37163;Laerm;23057;48.554;14.454;2023-04-01T16:43:38;49.83;48.76;51.26;;
37163;Laerm;23057;48.554;14.454;2023-04-01T16:46:27;49.85;48.61;50.85;;
37163;Laerm;23057;48.554;14.454;2023-04-01T16:51:54;49.83;48.76;50.92;;
37163;Laerm;23057;48.554;14.454;2023-04-01T16:54:56;49.84;48.76;51.37;;
37163;Laerm;23057;48.554;14.454;2023-04-01T16:57:51;49.84;48.52;52.31;;
37163;Laerm;23057;48.554;14.454;2023-04-01T17:01:22;49.85;48.71;51.30;;
37163;Laerm;23057;48.554;14.454;2023-04-01T17:03:36;49.86;48.77;51.02;;
37163;Laerm;23057;48.554;14.454;2023-04-01T17:06:36;49.84;48.83;51.08;;
37163;Laerm;23057;48.554;14.454;2023-04-01T17:09:38;49.84;48.69;51.58;;
37163;Laerm;23057;48.554;14.454;2023-04-01T17:12:37;49.84;48.67;51.26;;
37163;Laerm;23057;48.554;14.454;2023-04-01T17:21:07;49.87;48.76;52.13;;
37163;Laerm;23057;48.554;14.454;2023-04-01T17:24:35;49.85;48.71;51.93;;
37163;Laerm;23057;48.554;14.454;2023-04-01T17:34:09;49.87;48.69;52.07;;
37163;Laerm;23057;48.554;14.454;2023-04-01T17:37:13;49.85;48.61;52.18;;
37163;Laerm;23057;48.554;14.454;2023-04-01T17:43:28;49.85;48.69;52.12;;
37163;Laerm;23057;48.554;14.454;2023-04-01T17:52:26;49.85;48.84;51.51;;
37163;Laerm;23057;48.554;14.454;2023-04-01T17:58:08;49.86;48.69;53.99;;
37163;Laerm;23057;48.554;14.454;2023-04-01T18:07:04;49.85;48.77;51.70;;
37163;Laerm;23057;48.554;14.454;2023-04-01T18:24:28;49.85;48.83;51.66;;
37163;Laerm;23057;48.554;14.454;2023-04-01T18:29:50;49.85;48.66;52.02;;
37163;Laerm;23057;48.554;14.454;2023-04-01T18:32:37;49.85;48.85;52.64;;
37163;Laerm;23057;48.554;14.454;2023-04-01T18:36:09;49.85;48.67;52.38;;
37163;Laerm;23057;48.554;14.454;2023-04-01T18:39:21;49.85;48.71;51.67;;
37163;Laerm;23057;48.554;14.454;2023-04-01T18:45:21;49.87;48.58;51.87;;
37163;Laerm;23057;48.554;14.454;2023-04-01T18:49:02;49.85;48.54;52.02;;
37163;Laerm;23057;48.554;14.454;2023-04-01T18:51:36;49.84;48.87;51.62;;
37163;Laerm;23057;48.554;14.454;2023-04-01T18:54:23;49.86;48.70;51.90;;
37163;Laerm;23057;48.554;14.454;2023-04-01T18:57:27;49.87;48.77;53.99;;
37163;Laerm;23057;48.554;14.454;2023-04-01T19:03:02;49.86;48.48;52.22;;
37163;Laerm;23057;48.554;14.454;2023-04-01T19:05:40;49.85;48.80;52.21;;
37163;Laerm;23057;48.554;14.454;2023-04-01T19:08:26;49.86;48.80;52.60;;
37163;Laerm;23057;48.554;14.454;2023-04-01T19:11:21;49.88;48.83;52.31;;
37163;Laerm;23057;48.554;14.454;2023-04-01T19:17:59;49.87;48.76;52.15;;
37163;Laerm;23057;48.554;14.454;2023-04-01T19:23:53;49.85;48.76;51.80;;
37163;Laerm;23057;48.554;14.454;2023-04-01T19:26:41;49.86;48.71;51.68;;
37163;Laerm;23057;48.554;14.454;2023-04-01T19:33:22;49.86;48.63;51.77;;
37163;Laerm;23057;48.554;14.454;2023-04-01T19:42:28;49.86;48.77;52.08;;
37163;Laerm;23057;48.554;14.454;2023-04-01T19:48:05;49.85;48.80;51.26;;
37163;Laerm;23057;48.554;14.454;2023-04-01T19:50:53;49.87;48.74;51.09;;
37163;Laerm;23057;48.554;14.454;2023-04-01T20:05:51;49.86;48.81;51.33;;
37163;Laerm;23057;48.554;14.454;2023-04-01T20:08:54;49.86;48.84;52.21;;
37163;Laerm;23057;48.554;14.454;2023-04-01T20:11:43;49.86;48.69;51.30;;
37163;Laerm;23057;48.554;14.454;2023-04-01T20:14:36;49.86;48.66;51.17;;
37163;Laerm;23057;48.554;14.454;2023-04-01T20:25:46;49.86;48.76;51.37;;
37163;Laerm;23057;48.554;14.454;2023-04-01T20:32:04;49.86;48.69;51.28;;
37163;Laerm;23057;48.554;14.454;2023-04-01T20:40:32;49.85;48.85;51.50;;
37163;Laerm;23057;48.554;14.454;2023-04-01T21:04:13;49.86;48.66;51.17;;
37163;Laerm;23057;48.554;14.454;2023-04-01T21:11:07;49.86;48.85;51.47;;
37163;Laerm;23057;48.554;14.454;2023-04-01T21:22:55;49.85;48.85;51.17;;
37163;Laerm;23057;48.554;14.454;2023-04-01T21:37:36;49.86;48.74;51.75;;
37163;Laerm;23057;48.554;14.454;2023-04-01T21:40:32;49.85;48.71;52.04;;
37163;Laerm;23057;48.554;14.454;2023-04-01T21:43:12;49.85;48.76;51.28;;
37163;Laerm;23057;48.554;14.454;2023-04-01T21:49:28;49.85;48.58;51.48;;
37163;Laerm;23057;48.554;14.454;2023-04-01T21:55:08;49.85;48.76;51.20;;
37163;Laerm;23057;48.554;14.454;2023-04-01T22:01:16;49.85;48.85;51.60;;
37163;Laerm;23057;48.554;14.454;2023-04-01T22:04:18;49.86;48.70;50.91;;
37163;Laerm;23057;48.554;14.454;2023-04-01T22:07:23;49.87;48.73;51.73;;
37163;Laerm;23057;48.554;14.454;2023-04-01T22:27:49;49.86;48.77;51.19;;
37163;Laerm;23057;48.554;14.454;2023-04-01T22:30:27;49.86;48.61;51.62;;
37163;Laerm;23057;48.554;14.454;2023-04-01T22:42:00;49.85;48.69;51.06;;
37163;Laerm;23057;48.554;14.454;2023-04-01T22:48:19;49.84;48.83;51.16;;
37163;Laerm;23057;48.554;14.454;2023-04-01T22:51:07;49.85;48.76;51.04;;
37163;Laerm;23057;48.554;14.454;2023-04-01T22:54:14;49.86;48.70;50.90;;
37163;Laerm;23057;48.554;14.454;2023-04-01T22:56:56;49.87;48.74;52.01;;
37163;Laerm;23057;48.554;14.454;2023-04-01T23:03:00;49.86;48.80;51.01;;
37163;Laerm;23057;48.554;14.454;2023-04-01T23:05:40;49.86;48.70;51.05;;
37163;Laerm;23057;48.554;14.454;2023-04-01T23:11:21;49.86;48.74;51.14;;
37163;Laerm;23057;48.554;14.454;2023-04-01T23:17:25;49.86;48.58;50.80;;
37163;Laerm;23057;48.554;14.454;2023-04-01T23:20:29;49.85;48.81;51.56;;
37163;Laerm;23057;48.554;14.454;2023-04-01T23:23:11;49.87;48.77;51.70;;
37163;Laerm;23057;48.554;14.454;2023-04-01T23:26:09;49.86;48.82;51.53;;
37163;Laerm;23057;48.554;14.454;2023-04-01T23:28:53;49.85;48.67;51.52;;
37163;Laerm;23057;48.554;14.454;2023-04-01T23:36:47;49.86;48.80;51.49;;
37163;Laerm;23057;48.554;14.454;2023-04-01T23:39:40;49.85;48.70;51.11;;
37163;Laerm;23057;48.554;14.454;2023-04-01T23:42:32;49.86;48.58;51.33;;
37163;Laerm;23057;48.554;14.454;2023-04-01T23:45:13;49.86;48.77;51.45;;
37163;Laerm;23057;48.554;14.454;2023-04-01T23:47:46;49.86;48.74;52.41;;
37163;Laerm;23057;48.554;14.454;2023-04-01T23:50:25;49.86;48.80;52.16;;
37163;Laerm;23057;48.554;14.454;2023-04-01T23:53:04;49.85;48.63;51.07;;
37163;Laerm;23057;48.554;14.454;2023-04-01T23:55:41;49.86;48.81;51.57;;
37163;Laerm;23057;48.554;14.454;2023-04-01T23:58:24;49.87;48.71;51.95;;
